Latest Weather Observations for Middle Point

IDD60801

Issued at 10:01 am CST Wednesday 31 August 2016 (issued every 30 minutes, with the page automatically refreshed every 10 minutes)

About weather observations | Map of weather stations | Latest weather observations for NT | Other Formats
Station Details ID: 014041 Name: MIDDLE POINT Lat: -12.61 Lon: 131.30 Height: 14.1 m
Data from the previous 72 hours. | See also: Recent months at Middle Point
Date/Time
CST
Temp
°C
App
Temp
°C
Dew
Point
°C
Rel
Hum
%
Delta-T
°C
Wind Press
QNH
hPa
Press
MSL
hPa
Rain since
9am
mm
Dir  Spd
km/h
Gust
km/h
Spd
kts
Gust
kts
31/10:00am 30.3 29.5 18.4 49 7.7 NE 20 30 11 16 1016.1 1016.0 0.0
31/09:30am 29.7 29.1 18.8 52 7.0 NE 20 30 11 16 1016.2 1016.1 0.0
31/09:00am 29.1 30.1 20.3 59 5.8 NE 15 22 8 12 1016.2 1016.1 0.0
31/08:30am 28.0 30.3 22.0 70 4.0 ENE 13 17 7 9 1016.0 1015.9 0.0
31/08:00am 25.9 29.4 22.2 80 2.5 NE 7 11 4 6 1015.8 1015.7 0.0
31/07:30am 24.5 27.9 21.6 84 1.9 ESE 6 7 3 4 1015.7 1015.6 0.0
31/07:00am 24.5 27.8 21.4 83 2.0 E 6 7 3 4 1015.3 1015.2 0.0
31/06:30am 24.5 27.8 21.4 83 2.0 E 6 7 3 4 1015.1 1015.0 0.0
31/06:00am 24.3 28.0 21.4 84 1.9 ESE 4 6 2 3 1014.7 1014.6 0.0
31/05:30am 23.9 27.0 21.0 84 1.9 ESE 6 7 3 4 1014.6 1014.5 0.0
31/05:00am 23.7 27.3 20.6 83 2.0 SE 2 4 1 2 1014.5 1014.4 0.0
31/04:30am 23.5 27.3 20.2 82 2.1 CALM 0 4 0 2 1014.1 1014.0 0.0
31/04:00am 23.4 26.0 20.0 81 2.2 E 6 6 3 3 1014.1 1014.0 0.0
31/03:30am 23.8 27.0 20.5 82 2.1 SE 4 6 2 3 1014.2 1014.1 0.0
31/03:00am 22.9 25.4 19.9 83 1.9 E 6 7 3 4 1014.3 1014.2 0.0
31/02:30am 22.0 25.1 18.6 81 2.1 CALM 0 0 0 0 1014.4 1014.3 0.0
31/02:00am 22.3 25.3 18.5 79 2.4 CALM 0 0 0 0 1014.2 1014.1 0.0
31/01:30am 22.6 25.9 19.0 80 2.3 CALM 0 0 0 0 1014.3 1014.2 0.0
31/01:00am 22.1 24.8 18.7 81 2.1 W 2 4 1 2 1014.4 1014.3 0.0
31/12:30am 22.4 25.2 18.8 80 2.3 WSW 2 4 1 2 1014.5 1014.4 0.0
31/12:00am 23.0 25.2 19.6 81 2.2 WSW 7 11 4 6 1014.5 1014.4 0.0
 
Date/Time
CST
Temp
°C
App
Temp
°C
Dew
Point
°C
Rel
Hum
%
Delta-T
°C
Wind Press
QNH
hPa
Press
MSL
hPa
Rain since
9am
mm
Dir  Spd
km/h
Gust
km/h
Spd
kts
Gust
kts
30/11:30pm 22.4 24.1 18.0 76 2.7 N 6 7 3 4 1014.3 1014.2 0.0
30/11:00pm 22.6 25.2 17.5 73 3.2 CALM 0 0 0 0 1014.3 1014.2 0.0
30/10:30pm 23.0 25.1 17.2 70 3.6 NNE 2 2 1 1 1014.1 1014.0 0.0
30/10:00pm 25.5 27.7 19.2 68 4.0 NNE 6 6 3 3 1014.1 1014.0 0.0
30/09:30pm 25.5 27.3 18.4 65 4.5 NNE 6 7 3 4 1014.1 1014.0 0.0
30/09:00pm 26.1 27.8 18.0 61 5.1 NE 6 6 3 3 1013.6 1013.5 0.0
30/08:30pm 26.1 27.8 18.0 61 5.1 N 6 6 3 3 1013.1 1013.0 0.0
30/08:00pm 26.6 28.1 17.7 58 5.6 N 6 7 3 4 1012.8 1012.7 0.0
30/07:30pm 27.9 29.0 17.1 51 6.8 N 7 11 4 6 1012.4 1012.3 0.0
30/07:00pm 29.0 29.3 16.9 48 7.6 N 11 17 6 9 1011.9 1011.8 0.0
30/06:30pm 30.0 29.5 16.8 45 8.3 N 15 20 8 11 1011.7 1011.6 0.0
30/06:00pm 31.4 30.1 16.9 41 9.2 N 19 22 10 12 1011.3 1011.2 0.0
30/05:30pm 32.3 30.9 16.6 39 9.9 N 19 24 10 13 1011.2 1011.1 0.0
30/05:00pm 33.5 32.6 16.8 36 10.6 N 17 26 9 14 1010.9 1010.8 0.0
30/04:30pm 33.3 31.8 16.2 36 10.8 NNE 19 24 10 13 1010.7 1010.7 0.0
30/04:00pm 33.7 33.1 16.6 36 10.8 NNE 15 28 8 15 1010.9 1010.8 0.0
30/03:30pm 33.6 32.2 15.6 34 11.3 N 17 28 9 15 1010.9 1010.8 0.0
30/03:00pm 33.7 33.5 16.6 36 10.9 NNE 13 24 7 13 1011.3 1011.2 0.0
30/02:30pm 35.3 34.5 17.0 33 11.7 NE 17 28 9 15 1011.6 1011.5 0.0
30/02:00pm 33.9 33.0 15.8 33 11.4 ENE 15 26 8 14 1012.1 1012.0 0.0
30/01:30pm 34.6 34.5 17.8 37 10.9 N 15 24 8 13 1012.7 1012.6 0.0
30/01:00pm 32.8 32.7 17.0 38 10.1 NE 13 19 7 10 1013.4 1013.3 0.0
30/12:30pm 33.4 33.4 18.0 40 10.0 NE 15 26 8 14 1014.2 1014.1 0.0
30/12:00pm 31.7 31.9 17.6 43 9.0 ENE 13 24 7 13 1014.9 1014.8 0.0
30/11:30am 31.6 32.6 18.6 46 8.4 NE 11 20 6 11 1015.4 1015.3 0.0
30/11:00am 31.8 32.2 19.8 49 7.9 ENE 17 26 9 14 1016.0 1015.9 0.0
30/10:30am 30.4 31.4 20.3 54 6.7 ENE 15 20 8 11 1016.5 1016.4 0.0
30/10:00am 30.1 30.9 20.6 56 6.3 ENE 17 32 9 17 1016.7 1016.6 0.0
30/09:30am 28.5 29.5 21.0 64 5.0 ENE 17 24 9 13 1016.6 1016.5 0.0
30/09:00am 27.6 29.3 21.6 70 4.0 ENE 15 24 8 13 1016.5 1016.4 0.0
30/08:30am 26.7 29.5 22.3 77 3.0 E 11 17 6 9 1016.3 1016.2 0.0
30/08:00am 25.1 27.9 21.6 81 2.3 ESE 9 11 5 6 1016.1 1016.0 0.0
30/07:30am 24.0 27.7 21.5 86 1.7 E 4 6 2 3 1015.7 1015.6 0.0
30/07:00am 23.6 27.0 20.9 85 1.8 E 4 4 2 2 1015.3 1015.2 0.0
30/06:30am 23.2 26.5 21.5 90 1.1 E 6 9 3 5 1014.9 1014.8 0.0
30/06:00am 21.1 24.4 19.0 88 1.3 CALM 0 2 0 1 1014.5 1014.4 0.0
30/05:30am 21.6 24.6 19.2 86 1.5 SE 2 4 1 2 1014.3 1014.2 0.0
30/05:00am 22.1 24.9 19.6 86 1.6 ESE 4 4 2 2 1013.9 1013.8 0.0
30/04:30am 22.6 25.7 20.3 87 1.5 E 4 6 2 3 1013.8 1013.7 0.0
30/04:00am 22.3 24.9 20.4 89 1.2 E 7 9 4 5 1013.7 1013.6 0.0
30/03:30am 21.9 25.1 19.8 88 1.3 WSW 2 4 1 2 1013.6 1013.5 0.0
30/03:00am 21.8 25.2 19.4 86 1.5 CALM 0 0 0 0 1013.7 1013.6 0.0
30/02:30am 22.9 27.1 21.0 89 1.2 CALM 0 0 0 0 1014.0 1013.9 0.0
30/02:00am 22.1 26.0 20.4 90 1.1 CALM 0 0 0 0 1014.1 1014.0 0.0
30/01:30am 21.6 24.7 19.5 88 1.3 SW 2 2 1 1 1013.9 1013.8 0.0
30/01:00am 22.2 24.3 20.1 88 1.4 SW 9 11 5 6 1013.9 1013.8 0.0
30/12:30am 22.3 25.4 19.5 84 1.8 NNW 2 4 1 2 1013.8 1013.7 0.0
30/12:00am 23.8 26.6 21.5 87 1.5 N 9 11 5 6 1013.9 1013.8 0.0
 
Date/Time
CST
Temp
°C
App
Temp
°C
Dew
Point
°C
Rel
Hum
%
Delta-T
°C
Wind Press
QNH
hPa
Press
MSL
hPa
Rain since
9am
mm
Dir  Spd
km/h
Gust
km/h
Spd
kts
Gust
kts
29/11:30pm 22.8 25.2 20.0 84 1.8 NNE 7 7 4 4 1013.8 1013.7 0.0
29/11:00pm 23.1 25.2 20.2 84 1.9 NNE 9 9 5 5 1013.7 1013.6 0.0
29/10:30pm 23.0 25.2 19.6 81 2.2 NNE 7 7 4 4 1013.4 1013.3 0.0
29/10:00pm 23.9 26.4 19.8 78 2.6 NNE 6 7 3 4 1013.3 1013.2 0.0
29/09:30pm 24.0 26.7 19.5 76 2.9 N 4 6 2 3 1013.0 1012.9 0.0
29/09:00pm 24.6 26.9 19.4 73 3.3 N 6 7 3 4 1012.8 1012.7 0.0
29/08:30pm 25.5 27.3 19.6 70 3.8 N 9 11 5 6 1012.4 1012.3 0.0
29/08:00pm 25.9 27.5 19.1 66 4.4 N 9 11 5 6 1011.9 1011.8 0.0
29/07:30pm 26.7 27.7 18.6 61 5.2 NNE 11 13 6 7 1011.5 1011.4 0.0
29/07:00pm 27.7 28.2 18.4 57 5.9 N 13 19 7 10 1011.3 1011.2 0.0
29/06:30pm 28.8 28.9 18.3 53 6.7 N 15 24 8 13 1011.0 1010.9 0.0
29/06:00pm 29.9 28.4 16.7 45 8.3 N 20 28 11 15 1010.5 1010.5 0.0
29/05:30pm 31.2 29.2 15.6 39 9.7 NNE 20 30 11 16 1010.4 1010.4 0.0
29/05:00pm 31.9 29.0 14.1 34 10.8 NNE 22 30 12 16 1010.2 1010.2 0.0
29/04:30pm 32.6 29.9 14.7 34 11.0 NNE 22 33 12 18 1010.0 1010.0 0.0
29/04:00pm 32.7 30.2 16.1 37 10.4 N 24 37 13 20 1010.0 1010.0 0.0
29/03:30pm 33.1 30.6 15.1 33 11.2 NNE 22 32 12 17 1010.0 1010.0 0.0
29/03:00pm 33.7 31.6 16.1 34 11.1 NNE 22 32 12 17 1010.4 1010.4 0.0
29/02:30pm 33.9 31.9 12.8 28 12.7 NE 15 20 8 11 1010.9 1010.8 0.0
29/02:00pm 33.5 31.9 14.0 30 11.9 NNE 15 22 8 12 1011.6 1011.5 0.0
29/01:30pm 32.8 30.6 13.4 30 11.7 NE 17 28 9 15 1011.9 1011.8 0.0
29/01:00pm 33.3 31.0 12.9 29 12.2 NE 17 22 9 12 1012.5 1012.4 0.0
29/12:30pm 32.7 31.0 14.8 34 11.0 ENE 17 28 9 15 1013.0 1012.9 0.0
29/12:00pm 32.3 30.7 14.9 35 10.7 ENE 17 32 9 17 1013.6 1013.5 0.0
29/11:30am 31.5 30.5 15.5 38 9.9 ENE 15 24 8 13 1014.2 1014.1 0.0
29/11:00am 30.5 29.6 15.8 41 9.1 NE 15 24 8 13 1014.6 1014.5 0.0
29/10:30am 29.4 28.2 16.2 44 8.2 ENE 17 26 9 14 1015.2 1015.1 0.0
29/10:00am 29.0 28.7 16.5 46 7.8 NNE 13 20 7 11 1015.5 1015.4 0.0
29/09:30am 27.6 28.7 16.6 51 6.8 ENE 6 11 3 6 1015.5 1015.4 0.0
29/09:00am 26.3 27.3 16.3 54 6.2 E 6 9 3 5 1015.3 1015.2 0.0
29/08:30am 23.9 24.1 15.7 60 5.0 NE 9 11 5 6 1015.0 1014.9 0.0
29/08:00am 21.7 22.1 14.8 65 4.1 ENE 6 9 3 5 1014.8 1014.7 0.0
29/07:30am 18.2 19.0 14.9 81 1.9 E 4 6 2 3 1014.5 1014.4 0.0
29/07:00am 15.3 16.1 12.6 84 1.5 CALM 0 4 0 2 1014.2 1014.1 0.0
29/06:30am 14.8 15.5 12.1 84 1.5 CALM 0 0 0 0 1013.8 1013.7 0.0
29/06:00am 14.7 15.3 11.8 83 1.6 CALM 0 0 0 0 1013.3 1013.2 0.0
29/05:30am 16.0 16.8 12.7 81 1.8 CALM 0 0 0 0 1013.0 1012.9 0.0
29/05:00am 15.9 16.6 12.3 79 2.0 CALM 0 0 0 0 1012.7 1012.6 0.0
29/04:30am 16.6 17.5 12.8 78 2.1 CALM 0 0 0 0 1012.6 1012.5 0.0
29/04:00am 16.9 17.7 12.6 76 2.4 CALM 0 0 0 0 1012.4 1012.3 0.0
29/03:30am 17.3 18.4 13.4 78 2.2 CALM 0 0 0 0 1012.5 1012.4 0.0
29/03:00am 16.0 16.0 12.4 79 2.0 SW 4 9 2 5 1012.7 1012.6 0.0
29/02:30am 15.5 15.3 11.9 79 2.0 W 4 4 2 2 1012.9 1012.8 0.0
29/02:00am 15.8 16.2 12.4 80 1.9 W 2 2 1 1 1012.9 1012.8 0.0
29/01:30am 15.5 15.3 11.9 79 2.0 WNW 4 6 2 3 1013.2 1013.1 0.0
29/01:00am 16.6 16.8 12.0 74 2.5 N 2 4 1 2 1013.3 1013.2 0.0
29/12:30am 17.0 17.1 12.7 76 2.4 N 4 6 2 3 1013.5 1013.4 0.0
29/12:00am 16.6 16.6 12.4 76 2.3 NW 4 4 2 2 1013.5 1013.4 0.0
 
Date/Time
CST
Temp
°C
App
Temp
°C
Dew
Point
°C
Rel
Hum
%
Delta-T
°C
Wind Press
QNH
hPa
Press
MSL
hPa
Rain since
9am
mm
Dir  Spd
km/h
Gust
km/h
Spd
kts
Gust
kts
28/11:30pm 16.6 16.5 12.0 74 2.5 NW 4 4 2 2 1013.5 1013.4 0.0
28/11:00pm 18.2 18.2 12.4 69 3.2 NNE 4 6 2 3 1013.4 1013.3 0.0
28/10:30pm 19.7 19.7 12.5 63 4.0 SSE 4 7 2 4 1013.3 1013.2 0.0
28/10:00pm 19.3 18.8 12.1 63 4.0 WSW 6 6 3 3 1012.9 1012.8 0.0
28/09:30pm 20.3 19.0 12.5 61 4.4 SSW 11 15 6 8 1012.5 1012.4 0.0
28/09:00pm 20.7 20.4 11.6 56 5.1 NNW 4 6 2 3 1012.1 1012.0 0.0
28/08:30pm 22.5 22.0 12.2 52 5.8 N 6 7 3 4 1011.8 1011.7 0.0
28/08:00pm 23.3 22.1 11.7 48 6.5 N 9 11 5 6 1011.6 1011.5 0.0
28/07:30pm 24.3 22.9 10.9 43 7.5 N 9 11 5 6 1011.5 1011.4 0.0
28/07:00pm 26.6 24.3 10.3 36 9.1 N 13 17 7 9 1011.2 1011.1 0.0
28/06:30pm 28.2 24.9 9.5 31 10.4 N 17 22 9 12 1010.7 1010.7 0.0
28/06:00pm 30.3 26.4 8.7 26 12.0 NNE 19 22 10 12 1010.4 1010.4 0.0
28/05:30pm 31.5 28.1 9.1 25 12.6 NNE 17 24 9 13 1010.2 1010.2 0.0
28/05:00pm 32.2 28.4 9.7 25 12.8 N 20 28 11 15 1010.1 1010.1 0.0
28/04:30pm 32.7 28.8 9.5 24 13.2 N 20 28 11 15 1010.1 1010.1 0.0
28/04:00pm 33.2 29.3 9.3 23 13.6 NNE 20 28 11 15 1010.0 1010.0 0.0
28/03:30pm 35.0 31.7 6.3 17 15.7 ESE 13 20 7 11 1010.3 1010.3 0.0
28/03:00pm 34.3 32.9 7.4 19 14.9 SE 4 13 2 7 1010.6 1010.6 0.0
28/02:30pm 34.2 31.1 7.3 19 14.9 E 13 24 7 13 1011.0 1010.9 0.0
28/02:00pm 33.5 31.2 8.9 22 13.9 E 11 22 6 12 1011.7 1011.6 0.0
28/01:30pm 32.6 31.0 8.8 23 13.4 ENE 7 19 4 10 1012.2 1012.1 0.0
28/01:00pm 32.9 30.9 10.3 25 13.0 ENE 11 19 6 10 1012.9 1012.8 0.0
28/12:30pm 32.2 30.2 11.4 28 12.1 ENE 13 20 7 11 1013.4 1013.3 0.0
28/12:00pm 31.6 30.6 12.4 31 11.4 ENE 9 20 5 11 1014.2 1014.1 0.0
28/11:30am 31.0 29.9 14.2 36 10.2 ESE 13 22 7 12 1014.8 1014.7 0.0
28/11:00am 29.4 29.4 16.2 44 8.2 NE 11 19 6 10 1015.4 1015.3 0.0
28/10:30am 28.2 28.3 17.4 52 6.8 ENE 13 19 7 10 1015.9 1015.8 0.0

Other Formats:

Comma delimited format used in spreadsheet applications
http://www.bom.gov.au/fwo/IDD60801/IDD60801.95121.axf

JavaScript Object Notation format (JSON) in row-major order
http://www.bom.gov.au/fwo/IDD60801/IDD60801.95121.json